createdAt,value
2018-07-15T00:01:53.165Z,99.90
2018-07-15T00:04:21.377Z,99.90
2018-07-15T00:06:49.706Z,99.90
2018-07-15T00:09:17.993Z,99.90
2018-07-15T00:11:46.374Z,99.90
2018-07-15T00:14:14.572Z,99.90
2018-07-15T00:16:42.766Z,99.90
2018-07-15T00:19:10.936Z,99.90
2018-07-15T00:21:39.089Z,99.90
2018-07-15T00:24:07.799Z,99.90
2018-07-15T00:26:36.001Z,99.90
2018-07-15T00:29:04.225Z,99.90
2018-07-15T00:31:32.377Z,99.90
2018-07-15T00:34:01.288Z,99.90
2018-07-15T00:36:30.044Z,99.90
2018-07-15T00:38:58.218Z,99.90
2018-07-15T00:41:26.445Z,99.90
2018-07-15T00:43:54.629Z,99.90
2018-07-15T00:46:22.926Z,99.90
2018-07-15T00:48:51.281Z,99.90
2018-07-15T00:51:19.534Z,99.90
2018-07-15T00:53:47.749Z,99.90
2018-07-15T00:56:15.963Z,99.90
2018-07-15T00:58:45.818Z,99.90
2018-07-15T01:03:41.958Z,99.90
2018-07-15T01:08:38.112Z,99.90
2018-07-15T01:11:07.122Z,99.90
2018-07-15T01:13:35.365Z,99.90
2018-07-15T01:16:07.273Z,99.90
2018-07-15T01:18:35.515Z,99.90
2018-07-15T01:21:03.822Z,99.90
2018-07-15T01:23:32.043Z,99.90
2018-07-15T01:26:00.221Z,99.90
2018-07-15T01:28:29.242Z,99.90
2018-07-15T01:30:57.406Z,99.90
2018-07-15T01:33:26.227Z,99.90
2018-07-15T01:35:54.466Z,99.90
2018-07-15T01:38:22.678Z,99.90
2018-07-15T01:40:50.834Z,99.90
2018-07-15T01:43:20.134Z,99.90
2018-07-15T01:45:48.341Z,99.90
2018-07-15T01:48:16.827Z,99.90
2018-07-15T01:50:45.020Z,99.90
2018-07-15T01:53:13.205Z,99.90
2018-07-15T01:55:41.405Z,99.90
2018-07-15T01:58:09.989Z,99.90
2018-07-15T02:00:38.197Z,99.90
2018-07-15T02:03:06.414Z,99.90
2018-07-15T02:05:34.623Z,99.90
2018-07-15T02:08:02.821Z,99.90
2018-07-15T02:10:31.043Z,99.90
2018-07-15T02:12:59.295Z,99.90
2018-07-15T02:15:27.470Z,99.90
2018-07-15T02:17:56.494Z,99.90
2018-07-15T02:20:24.690Z,99.90
2018-07-15T02:22:53.176Z,99.90
2018-07-15T02:25:21.370Z,99.90
2018-07-15T02:27:49.557Z,99.90
2018-07-15T02:30:18.313Z,99.90
2018-07-15T02:32:46.494Z,99.90
2018-07-15T02:35:14.694Z,99.90
2018-07-15T02:37:42.873Z,99.90
2018-07-15T02:40:11.099Z,99.90
2018-07-15T02:42:40.520Z,99.90
2018-07-15T02:45:09.170Z,99.90
2018-07-15T02:47:37.338Z,99.90
2018-07-15T02:50:05.489Z,99.90
2018-07-15T02:52:33.863Z,99.90
2018-07-15T02:55:02.040Z,99.90
2018-07-15T02:57:30.302Z,99.90
2018-07-15T02:59:58.503Z,99.90
2018-07-15T03:02:26.719Z,99.90
2018-07-15T03:04:54.932Z,99.90
2018-07-15T03:07:23.133Z,99.90
2018-07-15T03:09:52.194Z,99.90
2018-07-15T03:12:20.668Z,99.90
2018-07-15T03:14:48.890Z,99.90
2018-07-15T03:17:17.076Z,99.90
2018-07-15T03:19:45.261Z,99.90
2018-07-15T03:22:14.202Z,99.90
2018-07-15T03:24:42.786Z,99.90
2018-07-15T03:27:10.978Z,99.90
2018-07-15T03:29:39.189Z,99.90
2018-07-15T03:32:07.384Z,99.90
2018-07-15T03:34:35.646Z,99.90
2018-07-15T03:37:03.870Z,99.90
2018-07-15T03:39:32.095Z,99.90
2018-07-15T03:42:00.268Z,99.90
2018-07-15T03:44:28.482Z,99.90
2018-07-15T03:46:56.667Z,99.90
2018-07-15T03:49:24.895Z,99.90
2018-07-15T03:51:53.094Z,99.90
2018-07-15T03:54:21.294Z,99.90
2018-07-15T03:56:49.514Z,99.90
2018-07-15T03:59:18.062Z,99.90
2018-07-15T04:01:46.906Z,99.90
2018-07-15T04:04:15.126Z,99.90
2018-07-15T04:06:45.110Z,99.90
2018-07-15T04:09:13.555Z,99.90
2018-07-15T04:11:41.729Z,99.90
2018-07-15T04:14:09.905Z,99.90
2018-07-15T04:16:38.052Z,99.90
2018-07-15T04:19:06.193Z,99.90
2018-07-15T04:21:34.434Z,99.90
2018-07-15T04:24:02.627Z,99.90
2018-07-15T04:26:30.802Z,99.90
2018-07-15T04:28:59.184Z,99.90
2018-07-15T04:31:27.701Z,99.90
2018-07-15T04:33:55.921Z,99.90
2018-07-15T04:36:24.202Z,99.90
2018-07-15T04:38:52.658Z,99.90
2018-07-15T04:41:20.882Z,99.90
2018-07-15T04:43:49.281Z,99.90
2018-07-15T04:46:17.789Z,99.90
2018-07-15T04:48:46.342Z,99.90
2018-07-15T04:51:14.547Z,99.90
2018-07-15T04:53:42.773Z,99.90
2018-07-15T04:56:10.985Z,99.90
2018-07-15T04:58:40.195Z,99.90
2018-07-15T05:01:08.399Z,99.90
2018-07-15T05:03:36.643Z,99.90
2018-07-15T05:06:05.116Z,99.90
2018-07-15T05:08:34.032Z,99.90
2018-07-15T05:11:02.226Z,99.90
2018-07-15T05:13:30.382Z,99.90
2018-07-15T05:15:58.589Z,99.90
2018-07-15T05:18:26.876Z,99.90
2018-07-15T05:20:55.078Z,99.90
2018-07-15T05:23:23.271Z,99.90
2018-07-15T05:25:51.478Z,99.90
2018-07-15T05:28:20.386Z,99.90
2018-07-15T05:30:49.027Z,99.90
2018-07-15T05:35:45.185Z,99.90
2018-07-15T05:38:13.415Z,99.90
2018-07-15T05:40:43.384Z,99.90
2018-07-15T05:43:11.966Z,99.90
2018-07-15T05:45:40.992Z,99.90
2018-07-15T05:48:09.652Z,99.90
2018-07-15T05:50:37.879Z,99.90
2018-07-15T05:53:06.033Z,99.90
2018-07-15T05:55:35.077Z,99.90
2018-07-15T05:58:03.868Z,99.90
2018-07-15T06:00:32.031Z,99.90
2018-07-15T06:03:00.411Z,99.90
2018-07-15T06:05:29.091Z,99.90
2018-07-15T06:07:57.293Z,99.90
2018-07-15T06:10:25.522Z,99.90
2018-07-15T06:12:53.686Z,99.90
2018-07-15T06:15:21.898Z,99.90
2018-07-15T06:17:50.126Z,99.90
2018-07-15T06:20:18.342Z,99.90
2018-07-15T06:22:47.276Z,99.90
2018-07-15T06:25:15.441Z,99.90
2018-07-15T06:27:43.631Z,99.90
2018-07-15T06:30:11.820Z,99.90
2018-07-15T06:32:40.060Z,99.90
2018-07-15T06:35:08.400Z,99.90
2018-07-15T06:37:36.548Z,99.90
2018-07-15T06:40:05.135Z,99.90
2018-07-15T06:42:33.663Z,99.90
2018-07-15T06:45:01.915Z,99.40
2018-07-15T06:47:30.275Z,98.80
2018-07-15T06:49:58.451Z,98.40
2018-07-15T06:52:26.657Z,97.60
2018-07-15T06:54:54.833Z,97.40
2018-07-15T06:57:23.002Z,97.70
2018-07-15T06:59:51.874Z,96.90
2018-07-15T07:04:48.008Z,97.90
2018-07-15T07:07:16.809Z,98.10
2018-07-15T07:09:44.959Z,97.90
2018-07-15T07:12:13.173Z,97.50
2018-07-15T07:14:41.635Z,96.70
2018-07-15T07:17:09.896Z,95.70
2018-07-15T07:19:38.131Z,96.50
2018-07-15T07:22:07.150Z,96.00
2018-07-15T07:24:35.360Z,95.20
2018-07-15T07:27:03.587Z,94.50
2018-07-15T07:29:31.779Z,94.40
2018-07-15T07:31:59.962Z,94.10
2018-07-15T07:34:28.194Z,93.60
2018-07-15T07:36:56.371Z,92.80
2018-07-15T07:39:24.537Z,92.80
2018-07-15T07:41:52.761Z,92.50
2018-07-15T07:44:20.936Z,91.90
2018-07-15T07:46:49.214Z,92.00
2018-07-15T07:49:17.439Z,91.80
2018-07-15T07:51:45.848Z,91.10
2018-07-15T07:54:14.036Z,90.70
2018-07-15T07:56:42.298Z,91.10
2018-07-15T07:59:10.497Z,91.40
2018-07-15T08:01:38.718Z,91.50
2018-07-15T08:04:07.421Z,92.00
2018-07-15T08:06:35.619Z,92.60
2018-07-15T08:09:04.766Z,91.70
2018-07-15T08:11:32.964Z,90.50
2018-07-15T08:14:01.159Z,90.90
2018-07-15T08:16:29.379Z,92.60
2018-07-15T08:18:58.944Z,91.40
2018-07-15T08:21:27.146Z,91.40
2018-07-15T08:23:56.257Z,90.20
2018-07-15T08:26:24.438Z,90.40
2018-07-15T08:28:52.650Z,90.60
2018-07-15T08:31:20.917Z,91.20
2018-07-15T08:33:49.099Z,90.50
2018-07-15T08:36:17.283Z,89.90
2018-07-15T08:38:45.466Z,89.10
2018-07-15T08:41:13.654Z,91.20
2018-07-15T08:43:41.808Z,90.40
2018-07-15T08:46:10.080Z,86.80
2018-07-15T08:48:39.988Z,87.50
2018-07-15T08:51:08.153Z,86.60
2018-07-15T08:53:36.363Z,86.90
2018-07-15T08:56:04.601Z,86.70
2018-07-15T08:58:33.701Z,84.70
2018-07-15T09:01:01.866Z,82.90
2018-07-15T09:03:30.018Z,82.60
2018-07-15T09:05:58.825Z,82.20
2018-07-15T09:08:26.958Z,82.00
2018-07-15T09:10:55.171Z,84.00
2018-07-15T09:13:23.400Z,83.80
2018-07-15T09:15:51.618Z,83.00
2018-07-15T09:18:19.839Z,82.60
2018-07-15T09:20:47.999Z,83.20
2018-07-15T09:23:17.074Z,83.00
2018-07-15T09:25:45.265Z,80.70
2018-07-15T09:28:13.410Z,80.30
2018-07-15T09:30:41.641Z,78.50
2018-07-15T09:33:09.858Z,78.50
2018-07-15T09:35:38.147Z,77.80
2018-07-15T09:38:06.286Z,79.40
2018-07-15T09:40:34.516Z,76.50
2018-07-15T09:43:02.722Z,76.90
2018-07-15T09:45:31.198Z,76.50
2018-07-15T09:47:59.910Z,77.40
2018-07-15T09:50:28.104Z,77.70
2018-07-15T09:52:56.318Z,76.40
2018-07-15T09:55:24.513Z,75.80
2018-07-15T09:57:54.902Z,76.60
2018-07-15T10:00:55.452Z,76.20
2018-07-15T10:03:23.941Z,77.40
2018-07-15T10:05:52.217Z,73.40
2018-07-15T10:08:22.767Z,74.30
2018-07-15T10:10:50.977Z,75.90
2018-07-15T10:13:19.145Z,76.30
2018-07-15T10:15:47.464Z,74.90
2018-07-15T10:18:15.854Z,72.90
2018-07-15T10:20:44.062Z,74.10
2018-07-15T10:23:12.277Z,74.50
2018-07-15T10:25:41.248Z,73.20
2018-07-15T10:28:09.440Z,73.60
2018-07-15T10:30:37.828Z,74.70
2018-07-15T10:33:06.065Z,74.30
2018-07-15T10:35:34.236Z,74.70
2018-07-15T10:38:02.560Z,73.00
2018-07-15T10:40:30.789Z,72.20
2018-07-15T10:42:59.597Z,71.70
2018-07-15T10:45:27.792Z,73.70
2018-07-15T10:47:56.046Z,73.80
2018-07-15T10:50:24.337Z,74.70
2018-07-15T10:52:53.181Z,75.10
2018-07-15T10:55:21.321Z,74.00
2018-07-15T10:57:49.762Z,75.00
2018-07-15T11:00:18.073Z,77.10
2018-07-15T11:02:46.291Z,74.70
2018-07-15T11:05:14.834Z,75.10
2018-07-15T11:07:43.018Z,74.80
2018-07-15T11:10:11.210Z,74.20
2018-07-15T11:12:39.843Z,71.70
2018-07-15T11:15:08.012Z,70.10
2018-07-15T11:17:36.201Z,69.20
2018-07-15T11:20:04.485Z,67.20
2018-07-15T11:22:32.719Z,67.10
2018-07-15T11:25:00.831Z,66.70
2018-07-15T11:27:29.032Z,66.30
2018-07-15T11:29:58.078Z,65.60
2018-07-15T11:32:26.277Z,64.50
2018-07-15T11:34:54.750Z,64.70
2018-07-15T11:37:22.924Z,66.60
2018-07-15T11:39:51.113Z,66.90
2018-07-15T11:42:19.765Z,67.50
2018-07-15T11:44:48.822Z,68.70
2018-07-15T11:47:17.055Z,70.50
2018-07-15T11:49:46.150Z,68.20
2018-07-15T11:52:14.315Z,67.80
2018-07-15T11:54:42.510Z,66.20
2018-07-15T11:57:10.673Z,66.30
2018-07-15T11:59:39.170Z,66.00
2018-07-15T12:02:07.363Z,66.20
2018-07-15T12:04:35.584Z,67.20
2018-07-15T12:07:03.780Z,67.10
2018-07-15T12:09:31.994Z,65.60
2018-07-15T12:12:00.230Z,66.00
2018-07-15T12:14:28.415Z,67.10
2018-07-15T12:16:56.622Z,67.80
2018-07-15T12:19:24.919Z,66.00
2018-07-15T12:21:53.100Z,66.50
2018-07-15T12:24:21.269Z,64.70
2018-07-15T12:26:49.466Z,63.60
2018-07-15T12:29:18.403Z,62.70
2018-07-15T12:31:46.622Z,64.20
2018-07-15T12:34:14.886Z,62.70
2018-07-15T12:36:43.310Z,62.70
2018-07-15T12:39:11.496Z,62.30
2018-07-15T12:41:39.696Z,62.80
2018-07-15T12:44:07.907Z,63.20
2018-07-15T12:46:36.106Z,63.40
2018-07-15T12:49:05.300Z,63.40
2018-07-15T12:51:33.463Z,64.80
2018-07-15T12:54:02.150Z,64.90
2018-07-15T12:56:30.321Z,64.50
2018-07-15T12:58:58.554Z,64.40
2018-07-15T13:01:26.755Z,65.50
2018-07-15T13:03:54.927Z,64.90
2018-07-15T13:06:23.086Z,63.50
2018-07-15T13:08:51.345Z,62.80
2018-07-15T13:11:19.646Z,61.30
2018-07-15T13:13:47.793Z,61.60
2018-07-15T13:16:18.075Z,63.70
2018-07-15T13:18:46.299Z,64.50
2018-07-15T13:23:42.881Z,64.70
2018-07-15T13:26:12.142Z,64.20
2018-07-15T13:28:40.318Z,65.10
2018-07-15T13:31:08.487Z,64.90
2018-07-15T13:33:37.435Z,65.50
2018-07-15T13:36:05.730Z,66.20
2018-07-15T13:38:33.920Z,63.50
2018-07-15T13:41:02.493Z,63.50
2018-07-15T13:43:30.730Z,62.50
2018-07-15T13:45:59.223Z,62.90
2018-07-15T13:48:27.369Z,62.40
2018-07-15T13:50:55.606Z,62.40
2018-07-15T13:53:23.750Z,63.10
2018-07-15T13:55:52.038Z,62.80
2018-07-15T13:58:20.229Z,64.70
2018-07-15T14:00:48.739Z,64.70
2018-07-15T14:05:44.918Z,65.00
2018-07-15T14:08:13.138Z,67.10
2018-07-15T14:10:41.474Z,68.20
2018-07-15T14:13:09.746Z,68.20
2018-07-15T14:15:38.160Z,69.00
2018-07-15T14:18:06.433Z,69.80
2018-07-15T14:20:34.623Z,70.40
2018-07-15T14:23:02.857Z,70.50
2018-07-15T14:25:31.079Z,73.50
2018-07-15T14:27:59.473Z,85.20
2018-07-15T14:30:28.186Z,92.30
2018-07-15T14:32:56.458Z,95.50
2018-07-15T14:35:25.265Z,93.20
2018-07-15T14:37:53.961Z,99.90
2018-07-15T14:40:22.078Z,99.90
2018-07-15T14:42:50.524Z,99.90
2018-07-15T14:45:18.730Z,99.90
2018-07-15T14:47:47.610Z,99.90
2018-07-15T14:50:15.798Z,99.90
2018-07-15T14:52:43.986Z,99.90
2018-07-15T14:55:12.243Z,99.90
2018-07-15T14:57:40.462Z,99.90
2018-07-15T15:00:08.657Z,99.90
2018-07-15T15:02:36.891Z,99.90
2018-07-15T15:05:05.122Z,99.90
2018-07-15T15:07:33.354Z,99.90
2018-07-15T15:10:01.811Z,99.90
2018-07-15T15:12:29.974Z,99.90
2018-07-15T15:14:58.154Z,99.90
2018-07-15T15:17:26.391Z,99.90
2018-07-15T15:19:54.566Z,99.90
2018-07-15T15:22:22.786Z,99.90
2018-07-15T15:24:51.060Z,99.90
2018-07-15T15:27:19.974Z,99.90
2018-07-15T15:29:48.169Z,99.90
2018-07-15T15:32:16.352Z,99.90
2018-07-15T15:34:44.598Z,99.90
2018-07-15T15:37:12.785Z,99.90
2018-07-15T15:39:41.061Z,99.90
2018-07-15T15:42:09.312Z,99.90
2018-07-15T15:44:37.572Z,99.90
2018-07-15T15:47:05.765Z,99.90
2018-07-15T15:49:34.006Z,99.90
2018-07-15T15:52:02.209Z,99.90
2018-07-15T15:54:30.408Z,99.90
2018-07-15T15:56:58.606Z,99.90
2018-07-15T15:59:26.818Z,99.90
2018-07-15T16:01:55.006Z,99.90
2018-07-15T16:04:23.614Z,99.90
2018-07-15T16:06:52.427Z,99.90
2018-07-15T16:09:20.630Z,99.90
2018-07-15T16:11:48.810Z,99.90
2018-07-15T16:14:17.585Z,99.90
2018-07-15T16:16:45.855Z,99.90
2018-07-15T16:19:13.983Z,99.90
2018-07-15T16:21:42.160Z,99.90
2018-07-15T16:24:10.354Z,99.90
2018-07-15T16:26:39.377Z,99.90
2018-07-15T16:29:07.601Z,99.90
2018-07-15T16:31:35.790Z,99.90
2018-07-15T16:34:04.053Z,99.90
2018-07-15T16:36:32.220Z,99.90
2018-07-15T16:39:00.434Z,99.90
2018-07-15T16:41:28.625Z,99.90
2018-07-15T16:43:56.855Z,99.90
2018-07-15T16:46:25.290Z,99.90
2018-07-15T16:48:53.499Z,99.90
2018-07-15T16:51:21.705Z,99.90
2018-07-15T16:53:49.961Z,99.90
2018-07-15T16:56:18.250Z,99.90
2018-07-15T16:58:46.331Z,99.90
2018-07-15T17:01:14.566Z,99.90
2018-07-15T17:03:42.819Z,99.90
2018-07-15T17:06:11.025Z,99.90
2018-07-15T17:08:39.322Z,99.90
2018-07-15T17:11:08.409Z,99.90
2018-07-15T17:13:36.769Z,99.90
2018-07-15T17:16:05.815Z,99.90
2018-07-15T17:18:34.071Z,99.90
2018-07-15T17:21:02.347Z,99.90
2018-07-15T17:23:30.489Z,99.90
2018-07-15T17:25:58.662Z,99.90
2018-07-15T17:28:26.847Z,99.90
2018-07-15T17:30:55.163Z,99.90
2018-07-15T17:33:23.391Z,99.90
2018-07-15T17:35:51.586Z,99.90
2018-07-15T17:38:19.811Z,99.90
2018-07-15T17:40:48.297Z,99.90
2018-07-15T17:43:16.536Z,99.90
2018-07-15T17:45:44.720Z,99.90
2018-07-15T17:48:12.920Z,99.90
2018-07-15T17:53:09.099Z,99.90
2018-07-15T17:55:37.345Z,99.90
2018-07-15T17:58:07.273Z,99.90
2018-07-15T18:00:35.446Z,99.90
2018-07-15T18:03:03.718Z,99.90
2018-07-15T18:05:32.681Z,99.90
2018-07-15T18:08:00.913Z,99.90
2018-07-15T18:10:29.200Z,99.90
2018-07-15T18:12:57.387Z,99.90
2018-07-15T18:15:25.586Z,99.90
2018-07-15T18:17:53.778Z,99.90
2018-07-15T18:20:22.010Z,99.90
2018-07-15T18:22:50.231Z,99.90
2018-07-15T18:25:18.457Z,99.90
2018-07-15T18:27:47.378Z,99.90
2018-07-15T18:30:15.571Z,99.90
2018-07-15T18:32:43.826Z,99.90
2018-07-15T18:35:11.999Z,99.90
2018-07-15T18:37:40.191Z,99.90
2018-07-15T18:40:08.450Z,99.90
2018-07-15T18:42:36.620Z,99.90
2018-07-15T18:45:04.897Z,99.90
2018-07-15T18:47:32.983Z,99.90
2018-07-15T18:50:01.182Z,99.90
2018-07-15T18:52:29.339Z,99.90
2018-07-15T18:54:57.555Z,99.90
2018-07-15T18:57:25.761Z,99.90
2018-07-15T18:59:54.067Z,99.90
2018-07-15T19:02:22.266Z,99.90
2018-07-15T19:04:50.466Z,99.90
2018-07-15T19:07:18.650Z,99.90
2018-07-15T19:09:46.834Z,99.90
2018-07-15T19:12:15.002Z,99.90
2018-07-15T19:14:43.202Z,99.90
2018-07-15T19:17:11.420Z,99.90
2018-07-15T19:19:39.562Z,99.90
2018-07-15T19:24:36.020Z,99.90
2018-07-15T19:27:04.166Z,99.90
2018-07-15T19:29:32.396Z,99.90
2018-07-15T19:32:00.812Z,99.90
2018-07-15T19:34:28.969Z,99.90
2018-07-15T19:36:57.160Z,99.90
2018-07-15T19:39:25.375Z,99.90
2018-07-15T19:41:53.605Z,99.90
2018-07-15T19:44:21.793Z,99.90
2018-07-15T19:46:49.958Z,99.90
2018-07-15T19:49:18.185Z,99.90
2018-07-15T19:51:46.365Z,99.90
2018-07-15T19:54:14.574Z,99.90
2018-07-15T19:56:42.824Z,99.90
2018-07-15T19:59:11.021Z,99.90
2018-07-15T20:01:39.275Z,99.90
2018-07-15T20:04:07.479Z,99.90
2018-07-15T20:06:35.698Z,99.90
2018-07-15T20:09:04.566Z,99.90
2018-07-15T20:11:33.749Z,99.90
2018-07-15T20:14:02.034Z,99.90
2018-07-15T20:16:30.209Z,99.90
2018-07-15T20:18:58.394Z,99.90
2018-07-15T20:21:26.556Z,99.90
2018-07-15T20:23:54.835Z,99.90
2018-07-15T20:26:23.071Z,99.90
2018-07-15T20:28:51.242Z,99.90
2018-07-15T20:31:19.570Z,99.90
2018-07-15T20:36:16.722Z,99.90
2018-07-15T20:38:44.954Z,99.90
2018-07-15T20:41:13.303Z,99.90
2018-07-15T20:43:41.533Z,99.90
2018-07-15T20:46:09.798Z,99.90
2018-07-15T20:48:37.981Z,99.90
2018-07-15T20:51:06.183Z,99.90
2018-07-15T20:53:34.438Z,99.90
2018-07-15T20:56:02.629Z,99.90
2018-07-15T20:58:30.805Z,99.90
2018-07-15T21:00:58.973Z,99.90
2018-07-15T21:03:27.206Z,99.90
2018-07-15T21:05:56.047Z,99.90
2018-07-15T21:10:52.169Z,99.90
2018-07-15T21:13:20.417Z,99.90
2018-07-15T21:15:48.637Z,99.90
2018-07-15T21:18:16.818Z,99.90
2018-07-15T21:20:44.958Z,99.90
2018-07-15T21:23:13.478Z,99.90
2018-07-15T21:25:41.917Z,99.90
2018-07-15T21:28:10.020Z,99.90
2018-07-15T21:30:38.222Z,99.90
2018-07-15T21:33:06.395Z,99.90
2018-07-15T21:35:34.596Z,99.90
2018-07-15T21:38:02.830Z,99.90
2018-07-15T21:40:30.971Z,99.90
2018-07-15T21:42:59.180Z,99.90
2018-07-15T21:45:27.634Z,99.90
2018-07-15T21:47:55.818Z,99.90
2018-07-15T21:50:24.581Z,99.90
2018-07-15T21:52:53.669Z,99.90
2018-07-15T21:55:21.851Z,99.90
2018-07-15T21:57:50.039Z,99.90
2018-07-15T22:00:18.247Z,99.90
2018-07-15T22:02:46.487Z,99.90
2018-07-15T22:05:14.685Z,99.90
2018-07-15T22:10:40.127Z,99.90
2018-07-15T22:13:08.272Z,99.90
2018-07-15T22:15:37.057Z,99.90
2018-07-15T22:18:05.354Z,99.90
2018-07-15T22:20:33.567Z,99.90
2018-07-15T22:23:01.796Z,99.90
2018-07-15T22:25:30.021Z,99.90
2018-07-15T22:27:58.212Z,99.90
2018-07-15T22:30:27.018Z,99.90
2018-07-15T22:32:55.247Z,99.90
2018-07-15T22:35:23.495Z,99.90
2018-07-15T22:37:52.511Z,99.90
2018-07-15T22:40:20.757Z,99.90
2018-07-15T22:42:49.003Z,99.90
2018-07-15T22:45:17.182Z,99.90
2018-07-15T22:47:47.322Z,99.90
2018-07-15T22:50:15.550Z,99.90
2018-07-15T22:52:43.685Z,99.90
2018-07-15T22:55:11.849Z,99.90
2018-07-15T22:57:40.154Z,99.90
2018-07-15T23:00:08.701Z,99.90
2018-07-15T23:02:37.504Z,99.90
2018-07-15T23:06:00.967Z,99.90
2018-07-15T23:08:30.362Z,99.90
2018-07-15T23:10:58.577Z,99.90
2018-07-15T23:13:26.752Z,99.90
2018-07-15T23:15:54.927Z,99.90
2018-07-15T23:18:23.166Z,99.90
2018-07-15T23:20:51.756Z,99.90
2018-07-15T23:23:19.954Z,99.90
2018-07-15T23:25:48.226Z,99.90
2018-07-15T23:28:17.339Z,99.90
2018-07-15T23:30:45.978Z,99.90
2018-07-15T23:33:14.259Z,99.90
2018-07-15T23:35:42.456Z,99.90
2018-07-15T23:38:10.665Z,99.90
2018-07-15T23:40:38.879Z,99.90
2018-07-15T23:43:07.100Z,99.90
2018-07-15T23:45:36.061Z,99.90
2018-07-15T23:48:04.306Z,99.90
2018-07-15T23:50:33.246Z,99.90
2018-07-15T23:53:01.454Z,99.90
2018-07-15T23:55:29.652Z,99.90
2018-07-15T23:57:57.904Z,99.90
